Time;durP1;ratioP1;P1;durP2;ratioP2;P2;SDS_P1;SDS_P2;PMS_P1;PMS_P2;Temp;Humidity;BMP_temperature;BMP_pressure;BME280_temperature;BME280_humidity;BME280_pressure;Samples;Min_cycle;Max_cycle;Signal;HPM_P1;HPM_P2
2023/01/31 00:01:42;;;;;;;13.63;9.40;;;;;;;19.21;38.63;101423.25;5055691;28;20505;-47
2023/01/31 00:04:11;;;;;;;9.95;8.35;;;;;;;19.21;38.76;101434.00;5055820;28;20491;-48
2023/01/31 00:06:41;;;;;;;12.30;9.75;;;;;;;19.20;38.63;101429.63;5055774;28;20487;-48
2023/01/31 00:09:10;;;;;;;10.73;8.82;;;;;;;19.20;38.43;101432.28;5055914;28;20382;-47
2023/01/31 00:11:38;;;;;;;12.50;9.65;;;;;;;19.19;38.69;101435.94;5055547;28;20391;-47
2023/01/31 00:14:06;;;;;;;10.93;9.13;;;;;;;19.19;38.54;101437.75;5054426;28;20059;-49
2023/01/31 00:16:34;;;;;;;11.15;8.60;;;;;;;19.18;38.36;101454.84;5055508;28;20052;-47
2023/01/31 00:19:02;;;;;;;11.73;9.05;;;;;;;19.18;38.45;101462.91;5054531;28;20052;-49
2023/01/31 00:21:30;;;;;;;12.20;9.25;;;;;;;19.18;38.42;101458.38;5053918;28;20056;-50
2023/01/31 00:23:58;;;;;;;10.52;8.73;;;;;;;19.16;38.37;101454.97;5055598;28;20051;-48
2023/01/31 00:26:29;;;;;;;12.57;8.70;;;;;;;19.15;38.41;101458.59;5055445;28;20052;-48
2023/01/31 00:28:58;;;;;;;10.68;8.18;;;;;;;19.15;38.46;101466.66;5055613;28;20056;-48
2023/01/31 00:31:28;;;;;;;10.55;8.65;;;;;;;19.15;38.26;101472.03;5054817;28;20076;-47
2023/01/31 00:33:56;;;;;;;12.65;9.38;;;;;;;19.15;38.35;101468.50;5053798;28;20052;-47
2023/01/31 00:36:26;;;;;;;12.23;8.82;;;;;;;19.15;38.28;101473.84;5055436;28;20395;-47
2023/01/31 00:38:56;;;;;;;10.95;8.50;;;;;;;19.14;38.43;101470.31;5055408;28;20053;-55
2023/01/31 00:41:25;;;;;;;11.05;8.85;;;;;;;19.13;38.44;101478.50;5054900;28;20045;-55
2023/01/31 00:43:52;;;;;;;11.05;8.52;;;;;;;19.12;38.31;101472.28;5055022;28;20383;-55
2023/01/31 00:46:20;;;;;;;10.27;8.63;;;;;;;19.12;38.35;101479.44;5053715;28;20037;-56
2023/01/31 00:48:49;;;;;;;10.60;8.80;;;;;;;19.12;38.40;101485.69;5053602;28;20048;-47
2023/01/31 00:51:17;;;;;;;11.82;8.82;;;;;;;19.11;38.50;101496.53;5054817;28;20048;-48
2023/01/31 00:53:45;;;;;;;10.85;8.70;;;;;;;19.10;38.65;101498.38;5054788;28;20045;-47
2023/01/31 00:56:15;;;;;;;11.60;8.95;;;;;;;19.10;38.76;101506.41;5054746;28;20045;-47
2023/01/31 00:58:42;;;;;;;9.18;7.57;;;;;;;19.11;38.77;101501.91;5054360;28;20049;-56
2023/01/31 01:01:11;;;;;;;10.88;8.85;;;;;;;19.09;38.82;101510.06;5053239;28;20052;-55
2023/01/31 01:03:39;;;;;;;10.40;7.88;;;;;;;19.09;38.80;101503.84;5054088;28;20048;-55
2023/01/31 01:06:08;;;;;;;9.88;7.82;;;;;;;19.09;38.74;101498.50;5053287;28;20514;-53
2023/01/31 01:08:37;;;;;;;10.65;8.43;;;;;;;19.09;38.78;101504.72;5053457;28;20049;-48
2023/01/31 01:11:06;;;;;;;11.98;8.60;;;;;;;19.09;38.79;101509.22;5053394;28;20053;-48
2023/01/31 01:13:34;;;;;;;10.38;8.52;;;;;;;19.09;38.62;101517.28;5052950;28;20050;-47
2023/01/31 01:16:06;;;;;;;9.98;7.93;;;;;;;19.08;38.66;101519.09;5054634;28;20040;-47
2023/01/31 01:18:35;;;;;;;11.18;8.07;;;;;;;19.08;38.83;101526.28;5053321;28;20060;-48
2023/01/31 01:21:13;;;;;;;11.32;8.38;;;;;;;19.07;38.78;101517.38;5053000;28;20395;-46
2023/01/31 01:23:42;;;;;;;11.35;8.10;;;;;;;19.07;38.76;101522.72;5052666;28;20052;-48
2023/01/31 01:26:25;;;;;;;10.48;8.20;;;;;;;19.07;38.77;101525.41;5053058;28;20053;-47
2023/01/31 01:28:53;;;;;;;9.95;8.57;;;;;;;19.07;38.76;101522.72;5054314;28;20064;-52
2023/01/31 01:31:21;;;;;;;11.13;8.27;;;;;;;19.06;38.75;101523.72;5053896;28;20068;-55
2023/01/31 01:33:49;;;;;;;11.27;8.57;;;;;;;19.05;38.85;101522.00;5052800;28;20049;-55
2023/01/31 01:36:20;;;;;;;10.93;7.88;;;;;;;19.06;38.88;101522.84;5054423;28;20056;-56
2023/01/31 01:38:48;;;;;;;9.98;7.55;;;;;;;19.05;38.98;101524.69;5054046;28;20517;-49
2023/01/31 01:41:16;;;;;;;9.93;8.27;;;;;;;19.03;38.82;101522.09;5052401;28;20060;-49
2023/01/31 01:43:50;;;;;;;9.93;8.60;;;;;;;19.03;38.97;101527.47;5052377;28;20053;-50
2023/01/31 01:46:25;;;;;;;9.27;7.97;;;;;;;19.03;39.01;101538.19;5053762;28;20053;-49
2023/01/31 01:49:24;;;;;;;11.00;8.55;;;;;;;19.03;38.82;101537.34;5053915;28;20049;-55
2023/01/31 01:51:56;;;;;;;11.57;7.57;;;;;;;19.03;38.90;101534.66;5053296;28;20056;-56
2023/01/31 01:54:33;;;;;;;10.23;7.85;;;;;;;19.03;38.94;101537.34;5052326;28;20076;-55
2023/01/31 01:57:04;;;;;;;8.07;7.15;;;;;;;19.02;38.93;101538.31;5053529;28;20049;-55
2023/01/31 01:59:46;;;;;;;11.10;7.90;;;;;;;19.00;39.03;101546.50;5054249;28;20068;-57
2023/01/31 02:02:14;;;;;;;9.00;8.00;;;;;;;19.00;39.00;101548.34;5052434;28;20044;-57
2023/01/31 02:04:45;;;;;;;10.40;7.60;;;;;;;19.00;39.01;101546.50;5053734;28;20049;-56
2023/01/31 02:07:12;;;;;;;9.25;7.72;;;;;;;19.01;39.14;101542.00;5053431;28;20049;-55
2023/01/31 02:10:02;;;;;;;10.70;7.53;;;;;;;19.00;39.20;101543.81;5052636;28;20064;-47
2023/01/31 02:12:31;;;;;;;9.27;7.55;;;;;;;19.00;39.12;101551.00;5053353;28;20049;-49
2023/01/31 02:14:58;;;;;;;9.30;7.68;;;;;;;18.99;39.21;101550.13;5052233;28;20053;-49
2023/01/31 02:17:26;;;;;;;8.88;7.18;;;;;;;18.99;39.33;101555.50;5051857;28;20060;-48
2023/01/31 02:20:33;;;;;;;12.43;7.80;;;;;;;18.99;39.16;101571.59;5052613;28;20049;-48
2023/01/31 02:23:18;;;;;;;9.52;7.53;;;;;;;18.99;39.10;101568.91;5048119;28;20052;-49
2023/01/31 02:26:29;;;;;;;9.27;7.63;;;;;;;18.98;39.03;101555.63;5052049;28;20068;-48
2023/01/31 02:29:15;;;;;;;10.88;7.90;;;;;;;18.98;39.12;101563.66;5051434;28;20052;-55
2023/01/31 02:31:57;;;;;;;8.98;7.85;;;;;;;18.98;39.03;101561.00;5034059;28;20053;-55
2023/01/31 02:34:44;;;;;;;9.32;7.85;;;;;;;18.96;39.20;101558.44;5045845;28;20045;-56
2023/01/31 02:37:33;;;;;;;8.43;7.53;;;;;;;18.97;39.05;101560.13;5051845;28;20055;-56
2023/01/31 02:40:29;;;;;;;10.30;7.53;;;;;;;18.97;39.07;101561.97;5051757;28;20045;-56
2023/01/31 02:43:08;;;;;;;8.50;6.95;;;;;;;18.96;39.07;101558.44;5051331;28;20053;-56
2023/01/31 02:45:45;;;;;;;10.40;7.85;;;;;;;18.95;38.95;101562.06;5051625;28;20049;-57
2023/01/31 02:48:28;;;;;;;9.70;7.60;;;;;;;18.96;39.06;101581.72;5035485;28;20053;-50
2023/01/31 02:51:11;;;;;;;10.75;7.25;;;;;;;18.95;39.08;101569.25;5035537;28;20060;-56
2023/01/31 02:53:49;;;;;;;9.50;7.38;;;;;;;18.95;39.25;101571.94;5035470;28;20056;-56
2023/01/31 02:56:22;;;;;;;9.48;7.35;;;;;;;18.95;39.13;101570.09;5051735;28;20055;-57
2023/01/31 02:59:10;;;;;;;9.68;7.05;;;;;;;18.94;39.05;101563.03;5051840;28;20049;-57
2023/01/31 03:01:43;;;;;;;9.02;7.93;;;;;;;18.94;39.12;101570.22;5051609;28;20400;-56
2023/01/31 03:04:12;;;;;;;9.70;7.45;;;;;;;18.94;38.97;101572.91;5053132;28;20033;-56
2023/01/31 03:06:53;;;;;;;8.93;7.28;;;;;;;18.93;38.95;101569.38;5051824;28;20060;-56
2023/01/31 03:09:40;;;;;;;8.38;7.50;;;;;;;18.94;38.99;101568.41;5051648;28;20052;-51
2023/01/31 03:12:17;;;;;;;10.85;7.75;;;;;;;18.94;39.18;101559.50;5051809;28;20517;-48
2023/01/31 03:15:06;;;;;;;9.63;7.50;;;;;;;18.92;39.00;101569.47;5051838;28;20053;-49
2023/01/31 03:18:07;;;;;;;9.30;7.80;;;;;;;18.93;38.90;101568.53;5052090;28;20056;-49
2023/01/31 03:20:54;;;;;;;11.25;7.97;;;;;;;18.91;39.18;101576.66;5052740;28;20053;-56
2023/01/31 03:23:30;;;;;;;8.32;7.15;;;;;;;18.91;39.20;101576.66;5055287;28;20053;-55
2023/01/31 03:25:59;;;;;;;9.30;7.07;;;;;;;18.91;39.28;101578.50;5056629;28;20049;-56
2023/01/31 03:28:29;;;;;;;11.38;7.95;;;;;;;18.91;39.07;101584.72;5055774;28;20479;-51
2023/01/31 03:31:13;;;;;;;10.63;7.47;;;;;;;18.90;39.18;101585.69;5056461;28;20517;-56
2023/01/31 03:33:43;;;;;;;;;;;;;;;18.90;39.23;101592.88;5056067;28;20395;-56
2023/01/31 03:36:31;;;;;;;9.68;7.10;;;;;;;18.89;39.22;101592.03;5055477;28;19921;-56
2023/01/31 03:39:51;;;;;;;8.57;6.93;;;;;;;18.90;39.29;101595.56;5055220;28;20055;-48
2023/01/31 03:42:27;;;;;;;8.52;6.88;;;;;;;18.88;39.17;101587.63;5055088;28;20045;-49
2023/01/31 03:44:59;;;;;;;8.43;7.10;;;;;;;18.88;39.12;101600.16;5055223;28;20049;-50
2023/01/31 03:47:30;;;;;;;8.85;7.05;;;;;;;18.88;39.44;101609.09;5054546;28;20056;-48
2023/01/31 03:50:04;;;;;;;10.15;7.45;;;;;;;18.88;39.21;101613.59;5055160;28;20068;-56
2023/01/31 03:52:37;;;;;;;9.70;7.20;;;;;;;18.87;39.18;101617.25;5055939;28;20063;-56
2023/01/31 03:55:15;;;;;;;8.43;7.47;;;;;;;18.86;39.07;101607.50;5054400;28;20064;-56
2023/01/31 03:57:47;;;;;;;9.95;7.65;;;;;;;18.86;39.12;101612.84;5054690;28;20052;-56
2023/01/31 04:00:17;;;;;;;9.60;7.22;;;;;;;18.85;39.13;101612.00;5054547;28;20052;-49
2023/01/31 04:03:03;;;;;;;11.20;7.45;;;;;;;18.85;39.08;101608.47;5054618;28;20049;-51
2023/01/31 04:05:32;;;;;;;8.25;7.20;;;;;;;18.86;39.19;101610.16;5054503;28;20045;-49
2023/01/31 04:08:02;;;;;;;9.10;7.60;;;;;;;18.85;39.26;101603.94;5054250;28;20527;-48
2023/01/31 04:10:32;;;;;;;9.75;7.32;;;;;;;18.85;39.26;101603.09;5054736;28;20060;-49
2023/01/31 04:13:00;;;;;;;9.45;8.45;;;;;;;18.86;39.12;101610.16;5055785;28;20060;-49
2023/01/31 04:15:27;;;;;;;8.85;7.50;;;;;;;18.84;39.20;101606.72;5055572;28;20049;-51
2023/01/31 04:17:55;;;;;;;8.93;7.38;;;;;;;18.84;39.17;101601.34;5055704;28;20049;-48
2023/01/31 04:20:22;;;;;;;8.68;7.70;;;;;;;18.84;39.25;101606.72;5055846;28;20048;-49
2023/01/31 04:22:50;;;;;;;8.63;6.95;;;;;;;18.84;39.10;101606.72;5055355;28;20060;-49
2023/01/31 04:25:17;;;;;;;8.55;7.57;;;;;;;18.83;39.26;101599.66;5055398;28;20053;-48
2023/01/31 04:27:45;;;;;;;10.02;6.88;;;;;;;18.84;39.26;101596.88;5055199;28;20411;-49
2023/01/31 04:30:12;;;;;;;9.63;7.40;;;;;;;18.84;39.16;101590.63;5055132;28;20061;-55
2023/01/31 04:32:39;;;;;;;9.35;7.15;;;;;;;18.84;39.11;101593.31;5052791;28;20052;-55
2023/01/31 04:35:07;;;;;;;8.00;6.82;;;;;;;18.83;39.14;101597.81;5055277;28;20494;-55
2023/01/31 04:37:35;;;;;;;9.68;7.32;;;;;;;18.83;39.11;101599.66;5055254;28;20048;-56
2023/01/31 04:40:03;;;;;;;9.20;7.38;;;;;;;18.83;39.15;101596.97;5054911;28;20048;-49
2023/01/31 04:42:30;;;;;;;9.35;7.07;;;;;;;18.82;39.10;101606.84;5055015;28;20052;-53
2023/01/31 04:44:58;;;;;;;8.25;6.85;;;;;;;18.82;39.17;101600.63;5055050;28;20037;-48
2023/01/31 04:47:25;;;;;;;9.13;7.28;;;;;;;18.82;39.05;101592.56;5055252;28;20069;-52
2023/01/31 04:49:53;;;;;;;9.63;7.22;;;;;;;18.81;38.97;101596.22;5055374;28;20399;-49
2023/01/31 04:52:20;;;;;;;7.90;7.00;;;;;;;18.80;39.12;101595.38;5054921;28;20052;-48
2023/01/31 04:54:47;;;;;;;8.30;7.47;;;;;;;18.81;39.07;101594.41;5054974;28;20040;-49
2023/01/31 04:57:15;;;;;;;8.88;7.63;;;;;;;18.81;39.16;101590.88;5054883;28;20049;-48
2023/01/31 04:59:42;;;;;;;8.65;6.90;;;;;;;18.80;39.04;101586.44;5055132;28;20045;-57
2023/01/31 05:02:09;;;;;;;10.07;7.45;;;;;;;18.80;39.12;101597.19;5054767;28;20055;-57
2023/01/31 05:04:36;;;;;;;10.32;7.28;;;;;;;18.78;39.01;101592.78;5054785;28;20048;-56
2023/01/31 05:07:04;;;;;;;9.38;7.13;;;;;;;18.80;39.21;101591.81;5054659;28;20049;-55
2023/01/31 05:09:31;;;;;;;8.68;6.93;;;;;;;18.78;39.10;101597.28;5054986;28;20045;-56
2023/01/31 05:11:58;;;;;;;8.95;6.97;;;;;;;18.77;39.00;101612.53;5054651;28;20051;-56
2023/01/31 05:14:26;;;;;;;7.80;6.78;;;;;;;18.76;38.96;101605.47;5054705;28;20052;-56
2023/01/31 05:16:54;;;;;;;9.05;7.00;;;;;;;18.77;39.11;101607.19;5054532;28;20049;-56
2023/01/31 05:19:21;;;;;;;8.73;7.13;;;;;;;18.76;39.07;101612.66;5054614;28;20044;-56
2023/01/31 05:21:57;;;;;;;10.07;7.22;;;;;;;18.75;39.20;101617.13;5054384;28;20375;-55
2023/01/31 05:24:27;;;;;;;10.90;7.82;;;;;;;18.76;38.99;101629.59;5054281;28;20052;-56
2023/01/31 05:26:57;;;;;;;10.57;8.00;;;;;;;18.76;39.08;101620.72;5054379;28;20056;-56
2023/01/31 05:29:25;;;;;;;8.15;6.82;;;;;;;18.75;39.10;101625.19;5054290;28;20046;-56
2023/01/31 05:31:56;;;;;;;9.57;7.43;;;;;;;18.75;39.05;101624.34;5054255;28;20044;-56
2023/01/31 05:34:25;;;;;;;9.52;7.57;;;;;;;18.75;39.03;101635.91;5054019;28;20045;-57
2023/01/31 05:36:52;;;;;;;9.35;6.95;;;;;;;18.74;39.12;101636.88;5053985;28;20048;-56
2023/01/31 05:39:20;;;;;;;8.40;6.97;;;;;;;18.73;39.01;101626.28;5054069;28;20044;-55
2023/01/31 05:41:47;;;;;;;8.85;7.13;;;;;;;18.73;39.19;101626.28;5054084;28;20387;-56
2023/01/31 05:44:15;;;;;;;7.80;7.00;;;;;;;18.73;39.11;101632.50;5053834;28;20049;-57
2023/01/31 05:46:42;;;;;;;7.50;6.38;;;;;;;18.72;39.38;101630.78;5054043;28;20060;-58
2023/01/31 05:49:10;;;;;;;9.20;7.20;;;;;;;18.71;39.25;101639.78;5054025;28;20049;-57
2023/01/31 05:51:38;;;;;;;9.55;7.18;;;;;;;18.72;39.19;101644.22;5053903;28;20056;-57
2023/01/31 05:54:06;;;;;;;9.20;7.53;;;;;;;18.71;39.27;101637.09;5053985;28;20056;-57
2023/01/31 05:56:34;;;;;;;9.50;6.78;;;;;;;18.71;39.33;101639.78;5053874;28;20045;-57
2023/01/31 05:59:02;;;;;;;9.68;6.80;;;;;;;18.71;39.31;101634.41;5054091;28;20060;-57
2023/01/31 06:01:29;;;;;;;9.35;7.60;;;;;;;18.70;39.18;101643.44;5053883;28;20048;-57
2023/01/31 06:03:57;;;;;;;7.95;6.70;;;;;;;18.70;39.10;101648.81;5053692;28;20049;-57
2023/01/31 06:06:24;;;;;;;9.30;6.90;;;;;;;18.70;39.33;101654.16;5053700;28;20052;-58
2023/01/31 06:08:51;;;;;;;9.48;6.57;;;;;;;18.70;39.44;101645.28;5052751;28;20479;-49
2023/01/31 06:11:19;;;;;;;7.85;7.05;;;;;;;18.70;39.25;101661.34;5053886;28;20056;-48
2023/01/31 06:13:48;;;;;;;7.82;7.03;;;;;;;18.69;39.15;101668.53;5053803;28;20052;-48
2023/01/31 06:16:15;;;;;;;8.15;6.47;;;;;;;18.69;39.13;101686.44;5053595;28;20049;-49
2023/01/31 06:18:43;;;;;;;8.75;7.00;;;;;;;18.68;39.13;101674.84;5053766;28;20049;-50
2023/01/31 06:21:10;;;;;;;9.00;7.43;;;;;;;18.69;39.08;101679.25;5053586;28;20049;-48
2023/01/31 06:23:39;;;;;;;8.77;7.22;;;;;;;18.68;39.10;101676.69;5053728;28;20115;-49
2023/01/31 06:26:06;;;;;;;8.25;7.32;;;;;;;18.67;39.01;101681.16;5053467;28;20045;-48
2023/01/31 06:28:35;;;;;;;9.25;7.47;;;;;;;18.67;38.92;101686.53;5053592;28;20041;-49
2023/01/31 06:31:10;;;;;;;8.65;6.95;;;;;;;18.66;39.10;101698.22;5053288;28;20399;-49
2023/01/31 06:33:38;;;;;;;8.70;7.07;;;;;;;18.65;39.14;101707.25;5053365;28;20040;-46
2023/01/31 06:36:14;;;;;;;9.27;6.70;;;;;;;18.66;39.01;101700.06;5053445;28;20056;-49
2023/01/31 06:38:51;;;;;;;7.32;6.18;;;;;;;18.66;39.01;101706.28;5053851;28;20049;-57
2023/01/31 06:41:19;;;;;;;9.25;6.97;;;;;;;18.65;38.99;101715.28;5053365;28;20049;-56
2023/01/31 06:43:47;;;;;;;7.85;6.57;;;;;;;18.65;38.98;101714.44;5053642;28;20371;-57
2023/01/31 06:46:15;;;;;;;8.15;6.68;;;;;;;18.64;38.91;101724.31;5053513;28;20056;-57
2023/01/31 06:48:43;;;;;;;8.25;6.80;;;;;;;18.65;39.03;101730.53;5053398;28;20052;-56
2023/01/31 06:51:10;;;;;;;9.00;6.35;;;;;;;18.65;38.92;101736.75;5053321;28;20053;-57
2023/01/31 06:53:37;;;;;;;7.88;6.80;;;;;;;18.64;39.17;101745.78;5053326;28;20056;-57
2023/01/31 06:56:05;;;;;;;8.80;6.70;;;;;;;18.64;39.08;101752.97;5055157;28;20052;-57
2023/01/31 06:58:32;;;;;;;7.85;6.25;;;;;;;18.63;39.11;101754.75;5057466;28;20464;-58
2023/01/31 07:01:05;;;;;;;8.13;7.03;;;;;;;18.63;39.17;101749.38;5057120;28;20044;-57
2023/01/31 07:03:32;;;;;;;8.07;6.20;;;;;;;18.64;39.24;101750.28;5057016;28;20391;-56
2023/01/31 07:05:59;;;;;;;7.97;5.97;;;;;;;18.62;39.16;101753.03;5056609;28;20041;-56
2023/01/31 07:08:27;;;;;;;8.38;6.30;;;;;;;18.62;39.18;101763.78;5056815;28;20056;-50
2023/01/31 07:10:54;;;;;;;7.65;5.95;;;;;;;18.63;39.31;101775.34;5056416;28;20040;-56
2023/01/31 07:13:22;;;;;;;8.88;6.90;;;;;;;18.62;39.27;101784.38;5056404;28;20398;-58
2023/01/31 07:15:50;;;;;;;6.68;5.68;;;;;;;18.62;39.18;101784.38;5056383;28;20040;-58
2023/01/31 07:18:17;;;;;;;8.13;6.32;;;;;;;18.62;39.27;101787.06;5056603;28;20056;-56
2023/01/31 07:20:45;;;;;;;7.70;6.50;;;;;;;18.62;39.28;101784.38;5056761;28;20052;-56
2023/01/31 07:23:12;;;;;;;8.15;6.47;;;;;;;18.61;39.23;101793.38;5056851;28;20506;-56
2023/01/31 07:25:39;;;;;;;9.57;6.70;;;;;;;18.60;39.33;101800.56;5056937;28;20056;-57
2023/01/31 07:28:07;;;;;;;9.23;6.50;;;;;;;18.60;38.97;101808.63;5056662;28;20045;-52
2023/01/31 07:30:34;;;;;;;8.80;6.45;;;;;;;18.60;39.30;101816.66;5056473;28;20052;-50
2023/01/31 07:33:02;;;;;;;6.88;5.95;;;;;;;18.61;39.31;101817.53;5056488;28;20049;-49
2023/01/31 07:35:29;;;;;;;7.03;5.40;;;;;;;18.59;39.22;101820.28;5056451;28;20045;-53
2023/01/31 07:37:57;;;;;;;6.93;6.03;;;;;;;18.58;39.35;101821.25;5056864;28;20047;-51
2023/01/31 07:40:24;;;;;;;7.07;5.68;;;;;;;18.58;39.29;101815.03;5056242;28;20128;-56
2023/01/31 07:42:57;;;;;;;9.95;6.47;;;;;;;18.58;39.33;101825.78;5056456;28;20506;-56
2023/01/31 07:45:24;;;;;;;8.52;6.07;;;;;;;18.58;39.46;101837.34;5056276;28;20048;-55
2023/01/31 07:47:51;;;;;;;7.13;6.32;;;;;;;18.57;39.43;101838.31;5056307;28;20056;-56
2023/01/31 07:50:19;;;;;;;7.63;6.20;;;;;;;18.57;39.50;101838.31;5056568;28;20041;-57
2023/01/31 07:52:47;;;;;;;7.22;6.13;;;;;;;18.57;39.46;101841.00;5056356;28;20052;-56
2023/01/31 07:55:15;;;;;;;7.75;5.70;;;;;;;18.58;39.60;101833.81;5056196;28;20041;-55
2023/01/31 07:57:42;;;;;;;8.68;6.80;;;;;;;18.57;39.29;101830.28;5055794;28;20052;-56
2023/01/31 08:05:45;;;;;;;8.68;6.82;;;;;;;18.58;39.61;101841.88;5056043;28;20052;-51
2023/01/31 08:08:13;;;;;;;10.18;6.40;;;;;;;18.58;39.60;101844.53;5054873;28;20053;-57
2023/01/31 08:10:40;;;;;;;11.25;6.80;;;;;;;18.56;39.68;101850.03;5055954;28;20052;-56
2023/01/31 08:13:09;;;;;;;9.90;6.65;;;;;;;18.57;39.68;101850.88;5055944;28;20048;-56
2023/01/31 08:15:37;;;;;;;9.90;6.68;;;;;;;18.57;39.30;101862.47;5055513;28;20045;-56
2023/01/31 08:18:04;;;;;;;8.02;6.03;;;;;;;18.58;39.71;101856.13;5055677;28;20041;-55
2023/01/31 08:20:33;;;;;;;8.65;6.68;;;;;;;18.58;39.68;101857.94;5055753;28;20380;-56
2023/01/31 08:23:00;;;;;;;8.75;6.25;;;;;;;18.57;39.68;101854.41;5055674;28;20045;-56
2023/01/31 08:25:29;;;;;;;9.80;6.57;;;;;;;18.56;39.73;101850.03;5055447;28;20037;-57
2023/01/31 08:27:57;;;;;;;8.13;6.28;;;;;;;18.55;39.86;101848.28;5055573;28;20454;-57
2023/01/31 08:30:25;;;;;;;7.07;5.78;;;;;;;18.56;39.90;101850.03;5055542;28;20053;-58
2023/01/31 08:32:52;;;;;;;12.43;6.65;;;;;;;18.59;40.12;101865.03;5055147;28;20044;-48
2023/01/31 08:35:19;;;;;;;9.77;8.27;;;;;;;18.56;38.03;101874.16;5055149;28;20052;-57
2023/01/31 08:37:47;;;;;;;9.43;6.90;;;;;;;18.55;39.76;101867.03;5055120;28;20095;-56
2023/01/31 08:40:15;;;;;;;14.68;6.55;;;;;;;18.58;40.02;101874.03;5055005;28;20053;-57
2023/01/31 08:42:42;;;;;;;10.45;6.30;;;;;;;18.60;39.97;101869.44;5055088;28;20061;-57
2023/01/31 08:45:09;;;;;;;9.05;6.53;;;;;;;18.61;39.95;101863.97;5055059;28;20053;-57
2023/01/31 08:47:37;;;;;;;9.02;6.72;;;;;;;18.64;39.65;101869.16;5053706;28;20045;-56
2023/01/31 08:50:07;;;;;;;14.10;6.30;;;;;;;18.65;39.30;101864.63;5054898;28;20049;-49
2023/01/31 08:52:55;;;;;;;;;;;;;;;18.66;39.43;101856.47;5055492;28;20048;-49
2023/01/31 08:55:23;;;;;;;10.05;6.78;;;;;;;18.68;39.65;101848.34;5054772;28;19921;-50
2023/01/31 08:57:51;;;;;;;7.20;6.18;;;;;;;18.69;39.46;101861.63;5054634;28;20049;-48
2023/01/31 09:00:27;;;;;;;13.43;7.15;;;;;;;18.72;39.45;101868.66;5055069;28;20062;-47
2023/01/31 09:02:57;;;;;;;9.98;6.85;;;;;;;18.74;39.25;101864.03;5054752;28;20479;-48
2023/01/31 09:05:26;;;;;;;10.93;6.72;;;;;;;18.74;39.42;101864.91;5054452;28;20052;-49
2023/01/31 09:07:54;;;;;;;8.23;5.80;;;;;;;18.75;39.28;101881.84;5054556;28;20045;-47
2023/01/31 09:10:23;;;;;;;9.82;6.35;;;;;;;18.75;39.29;101866.59;5054420;28;20471;-48
2023/01/31 09:12:50;;;;;;;12.70;6.53;;;;;;;18.77;39.48;101871.88;5054124;28;20056;-47
2023/01/31 09:15:17;;;;;;;8.93;5.90;;;;;;;18.78;39.51;101870.91;5054406;28;20052;-48
2023/01/31 09:17:45;;;;;;;11.02;6.20;;;;;;;18.77;39.77;101867.38;5054389;28;20055;-49
2023/01/31 09:20:13;;;;;;;9.75;6.05;;;;;;;18.78;39.55;101870.91;5054723;28;20360;-57
2023/01/31 09:22:40;;;;;;;8.07;6.38;;;;;;;18.78;39.29;101876.28;5054638;28;20045;-56
2023/01/31 09:25:08;;;;;;;13.50;7.53;;;;;;;18.80;38.82;101884.22;5054104;28;20045;-57
2023/01/31 09:27:37;;;;;;;10.05;6.78;;;;;;;18.81;39.34;101881.44;5054186;28;20048;-56
2023/01/31 09:30:06;;;;;;;11.25;7.65;;;;;;;18.83;38.65;101884.03;5053058;28;20053;-56
2023/01/31 09:32:35;;;;;;;17.60;9.77;;;;;;;18.81;37.38;101892.19;5053171;28;20041;-56
2023/01/31 09:35:03;;;;;;;13.27;7.75;;;;;;;18.82;38.66;101882.31;5053035;28;20056;-57
2023/01/31 09:37:30;;;;;;;13.23;7.85;;;;;;;18.82;38.57;101888.53;5053722;28;20048;-56
2023/01/31 09:39:58;;;;;;;11.68;6.78;;;;;;;18.83;38.78;101894.75;5053034;28;20419;-51
2023/01/31 09:42:30;;;;;;;12.25;8.00;;;;;;;18.83;38.96;101900.13;5053209;28;20056;-48
2023/01/31 09:45:01;;;;;;;11.23;7.13;;;;;;;18.84;39.38;101901.84;5053738;28;20051;-47
2023/01/31 09:47:47;;;;;;;10.95;6.22;;;;;;;18.83;39.22;101884.88;5053580;28;20041;-47
2023/01/31 09:50:20;;;;;;;8.27;6.13;;;;;;;18.85;39.40;101876.75;5052941;28;20377;-56
2023/01/31 09:52:48;;;;;;;;;;;;;;;18.85;39.41;101880.28;5053518;28;20056;-56
2023/01/31 09:55:18;;;;;;;12.02;6.80;;;;;;;18.87;39.39;101885.53;5053237;28;19927;-55
2023/01/31 09:58:08;;;;;;;9.68;6.57;;;;;;;18.87;39.38;101894.44;5053718;28;20388;-55
2023/01/31 10:00:46;;;;;;;9.40;5.85;;;;;;;18.87;39.37;101901.63;5035874;28;20391;-47
2023/01/31 10:03:22;;;;;;;9.80;6.38;;;;;;;18.87;39.26;101901.63;5052310;28;20059;-48
2023/01/31 10:06:04;;;;;;;8.73;5.65;;;;;;;18.86;39.16;101907.97;5053237;28;20060;-48
2023/01/31 10:08:46;;;;;;;9.48;5.72;;;;;;;18.86;39.23;101899.91;5052775;28;20048;-48
2023/01/31 10:11:26;;;;;;;7.80;6.07;;;;;;;18.85;39.00;101888.34;5052698;28;20056;-48
2023/01/31 10:14:00;;;;;;;11.60;5.75;;;;;;;18.85;38.91;101890.16;5052767;28;20502;-48
2023/01/31 10:17:00;;;;;;;7.45;5.82;;;;;;;18.84;39.04;101897.34;5052670;28;20483;-50
2023/01/31 10:19:34;;;;;;;8.23;5.80;;;;;;;18.85;39.06;101884.78;5052305;28;20084;-57
2023/01/31 10:22:09;;;;;;;9.27;5.93;;;;;;;18.84;39.05;101875.00;5052457;28;20479;-56
2023/01/31 10:24:48;;;;;;;9.20;6.20;;;;;;;18.84;39.06;101869.63;5052649;28;20060;-56
2023/01/31 10:27:25;;;;;;;9.77;5.85;;;;;;;18.84;38.86;101861.59;5052766;28;20049;-57
2023/01/31 10:29:56;;;;;;;7.13;5.57;;;;;;;18.83;38.85;101859.88;5052689;28;20060;-50
2023/01/31 10:32:33;;;;;;;8.32;6.32;;;;;;;18.83;38.69;101854.50;5056802;28;20056;-48
2023/01/31 10:35:09;;;;;;;10.10;7.05;;;;;;;18.82;38.85;101850.13;5056920;28;20060;-49
2023/01/31 10:37:46;;;;;;;9.68;5.70;;;;;;;18.82;39.06;101844.75;5056871;28;20048;-49
2023/01/31 10:40:37;;;;;;;9.00;6.25;;;;;;;18.81;38.90;101837.69;5056928;28;20053;-55
2023/01/31 10:43:13;;;;;;;7.63;5.68;;;;;;;18.81;38.96;101843.91;5056220;28;20411;-54
2023/01/31 10:45:40;;;;;;;9.52;5.90;;;;;;;18.82;38.85;101839.38;5056747;28;20049;-55
2023/01/31 10:48:25;;;;;;;8.38;6.20;;;;;;;18.81;39.00;101825.13;5056621;28;20044;-53
2023/01/31 10:51:17;;;;;;;7.85;6.15;;;;;;;18.81;38.83;101837.69;5056683;28;20056;-56
2023/01/31 10:53:47;;;;;;;8.98;5.15;;;;;;;18.82;38.99;101839.38;5056511;28;20044;-56
2023/01/31 10:56:33;;;;;;;9.48;6.20;;;;;;;18.82;38.88;101836.69;5056472;28;20037;-56
2023/01/31 10:59:09;;;;;;;7.72;6.05;;;;;;;18.83;38.81;101835.72;5056757;28;20055;-48
2023/01/31 11:01:37;;;;;;;8.00;6.60;;;;;;;18.81;38.88;101832.31;5056507;28;20052;-49
2023/01/31 11:04:24;;;;;;;8.15;5.63;;;;;;;18.81;38.94;101830.47;5056409;28;20045;-50
2023/01/31 11:06:52;;;;;;;8.13;6.22;;;;;;;18.82;38.86;101831.34;5056375;28;20406;-49
2023/01/31 11:09:22;;;;;;;9.63;6.25;;;;;;;18.81;38.79;101826.94;5055224;28;20495;-56
2023/01/31 11:11:59;;;;;;;7.60;6.30;;;;;;;18.80;38.92;101826.09;5056219;28;20048;-56
2023/01/31 11:14:28;;;;;;;7.43;5.80;;;;;;;18.80;38.78;101812.69;5056252;28;20487;-55
2023/01/31 11:17:01;;;;;;;8.30;5.50;;;;;;;18.81;38.70;101816.22;5056028;28;20048;-55
2023/01/31 11:19:32;;;;;;;8.15;5.72;;;;;;;18.80;38.81;101818.03;5056346;28;20402;-48
2023/01/31 11:22:00;;;;;;;7.25;5.10;;;;;;;18.80;38.66;101822.53;5056052;28;20045;-48
2023/01/31 11:24:31;;;;;;;7.90;6.10;;;;;;;18.78;38.58;101818.13;5056232;28;20045;-48
2023/01/31 11:27:06;;;;;;;8.75;5.25;;;;;;;18.79;38.66;101808.25;5056005;28;20044;-47
2023/01/31 11:29:38;;;;;;;8.38;5.63;;;;;;;18.78;38.77;101802.03;5056096;28;20406;-56
2023/01/31 11:32:17;;;;;;;8.13;5.43;;;;;;;18.77;38.76;101797.63;5055568;28;20053;-56
2023/01/31 11:35:13;;;;;;;8.57;5.68;;;;;;;18.77;38.74;101794.94;5055860;28;20274;-57
2023/01/31 11:38:16;;;;;;;6.75;5.28;;;;;;;18.77;38.85;101797.63;5054686;28;20068;-56
2023/01/31 11:40:43;;;;;;;7.13;4.97;;;;;;;18.77;38.92;101797.63;5055341;28;20068;-49
2023/01/31 11:43:13;;;;;;;8.38;5.13;;;;;;;18.77;38.70;101794.94;5055519;28;20056;-47
2023/01/31 11:45:53;;;;;;;7.38;5.22;;;;;;;18.77;38.71;101791.41;5055624;28;20048;-48
2023/01/31 11:48:27;;;;;;;6.90;5.05;;;;;;;18.77;38.80;101794.94;5055584;28;20048;-48
2023/01/31 11:51:01;;;;;;;7.22;5.43;;;;;;;18.76;38.78;101782.50;5055524;28;20041;-49
2023/01/31 11:53:43;;;;;;;6.82;5.30;;;;;;;18.76;38.86;101787.03;5055466;28;20056;-49